Time,TemperatureF,DewpointF,PressureIn,WindDirection,WindDirectionDegrees,WindSpeedMPH,WindSpeedGustMPH,Humidity,HourlyPrecipIn,Conditions,Clouds,dailyrainin,SoftwareType,DateUTC
2013-07-19 00:01:00,73.8,73.2,29.98,SW,225,0.0,0.7,98,0.00,,,0.00,,2013-07-19 04:01:00,
2013-07-19 00:02:00,73.8,73.2,29.98,SE,135,0.0,0.0,98,0.00,,,0.00,,2013-07-19 04:02:00,
2013-07-19 00:03:00,73.8,73.2,29.98,SE,135,0.0,0.0,98,0.00,,,0.00,,2013-07-19 04:03:00,
2013-07-19 00:04:00,73.8,73.2,29.98,SW,225,0.0,0.0,98,0.00,,,0.00,,2013-07-19 04:04:00,
2013-07-19 00:09:00,73.8,73.2,29.99,SE,135,0.0,0.0,98,0.00,,,0.00,,2013-07-19 04:09:00,
2013-07-19 00:15:00,73.8,73.2,29.99,SE,135,0.0,0.0,98,0.00,,,0.00,,2013-07-19 04:15:00,
2013-07-19 00:21:00,73.9,73.3,29.99,SW,225,0.0,0.0,98,0.00,,,0.00,,2013-07-19 04:21:00,
2013-07-19 00:26:00,73.9,73.3,29.99,West,270,0.0,0.7,98,0.00,,,0.00,,2013-07-19 04:26:00,
2013-07-19 00:32:00,73.8,73.2,29.99,West,270,0.0,0.0,98,0.00,,,0.00,,2013-07-19 04:32:00,
2013-07-19 00:38:00,73.8,73.5,29.99,SE,135,0.0,1.6,99,0.00,,,0.00,,2013-07-19 04:38:00,
2013-07-19 00:43:00,73.8,73.5,29.99,South,180,0.0,0.0,99,0.00,,,0.00,,2013-07-19 04:43:00,
2013-07-19 00:49:00,73.6,73.3,29.99,SE,135,0.0,0.7,99,0.00,,,0.00,,2013-07-19 04:49:00,
2013-07-19 00:55:00,73.6,73.3,29.99,SE,135,0.0,0.0,99,0.00,,,0.00,,2013-07-19 04:55:00,
2013-07-19 01:00:00,73.6,73.3,29.99,South,180,0.0,0.7,99,0.00,,,0.00,,2013-07-19 05:00:00,
2013-07-19 01:06:00,73.4,73.1,29.99,SW,225,0.0,0.0,99,0.00,,,0.00,,2013-07-19 05:06:00,
2013-07-19 01:12:00,73.4,73.1,29.99,SE,135,0.0,0.7,99,0.00,,,0.00,,2013-07-19 05:12:00,
2013-07-19 01:17:00,73.2,72.9,29.99,South,180,0.0,0.0,99,0.00,,,0.00,,2013-07-19 05:17:00,
2013-07-19 01:23:00,73.2,72.9,29.99,South,180,0.0,0.0,99,0.00,,,0.00,,2013-07-19 05:23:00,
2013-07-19 01:29:00,73.2,72.9,29.99,SW,225,0.0,0.7,99,0.00,,,0.00,,2013-07-19 05:29:00,
2013-07-19 01:34:00,73.2,72.9,29.99,SE,135,0.0,0.0,99,0.00,,,0.00,,2013-07-19 05:34:00,
2013-07-19 01:40:00,73.2,72.9,29.99,West,270,0.0,0.0,99,0.00,,,0.00,,2013-07-19 05:40:00,
2013-07-19 01:46:00,73.2,72.9,29.99,South,180,0.0,0.0,99,0.00,,,0.00,,2013-07-19 05:46:00,
2013-07-19 01:51:00,73.2,72.9,29.98,West,270,0.0,0.0,99,0.00,,,0.00,,2013-07-19 05:51:00,
2013-07-19 01:57:00,73.0,72.7,29.99,West,270,0.0,0.0,99,0.00,,,0.00,,2013-07-19 05:57:00,
2013-07-19 02:03:00,73.0,72.7,29.98,South,180,0.0,0.7,99,0.00,,,0.00,,2013-07-19 06:03:00,
2013-07-19 02:08:00,73.0,72.7,29.98,South,180,0.0,0.0,99,0.00,,,0.00,,2013-07-19 06:08:00,
2013-07-19 02:14:00,72.9,72.6,29.98,SE,135,0.0,0.7,99,0.00,,,0.00,,2013-07-19 06:14:00,
2013-07-19 02:20:00,72.7,72.4,29.98,South,180,0.0,1.6,99,0.00,,,0.00,,2013-07-19 06:20:00,
2013-07-19 02:25:00,72.7,72.4,29.98,West,270,0.0,0.7,99,0.00,,,0.00,,2013-07-19 06:25:00,
2013-07-19 02:31:00,72.5,72.2,29.98,South,180,0.0,0.0,99,0.00,,,0.00,,2013-07-19 06:31:00,
2013-07-19 02:37:00,72.5,72.2,29.98,East,90,0.0,0.0,99,0.00,,,0.00,,2013-07-19 06:37:00,
2013-07-19 02:42:00,72.3,71.4,29.98,SE,135,0.0,0.0,97,0.00,,,0.00,,2013-07-19 06:42:00,
2013-07-19 02:48:00,72.3,71.4,29.98,SE,135,0.0,0.0,97,0.00,,,0.00,,2013-07-19 06:48:00,
2013-07-19 02:54:00,72.3,71.4,29.97,SE,135,0.0,0.0,97,0.00,,,0.00,,2013-07-19 06:54:00,
2013-07-19 02:59:00,72.3,71.4,29.98,NW,315,0.0,0.7,97,0.00,,,0.00,,2013-07-19 06:59:00,
2013-07-19 03:05:00,72.3,71.4,29.97,South,180,0.0,0.0,97,0.00,,,0.00,,2013-07-19 07:05:00,
2013-07-19 03:11:00,72.3,71.4,29.97,SE,135,0.0,0.0,97,0.00,,,0.00,,2013-07-19 07:11:00,
2013-07-19 03:16:00,72.3,71.4,29.97,SW,225,0.0,1.6,97,0.00,,,0.00,,2013-07-19 07:16:00,
2013-07-19 03:22:00,72.3,71.4,29.97,South,180,0.0,0.7,97,0.00,,,0.00,,2013-07-19 07:22:00,
2013-07-19 03:28:00,72.3,71.4,29.96,SE,135,0.0,0.0,97,0.00,,,0.00,,2013-07-19 07:28:00,
2013-07-19 03:33:00,72.3,71.4,29.96,SE,135,0.0,0.0,97,0.00,,,0.00,,2013-07-19 07:33:00,
2013-07-19 03:39:00,72.1,71.2,29.96,SE,135,0.0,0.0,97,0.00,,,0.00,,2013-07-19 07:39:00,
2013-07-19 03:45:00,72.1,71.2,29.96,West,270,0.0,0.0,97,0.00,,,0.00,,2013-07-19 07:45:00,
2013-07-19 03:50:00,72.1,71.2,29.96,West,270,0.0,0.0,97,0.00,,,0.00,,2013-07-19 07:50:00,
2013-07-19 03:56:00,72.1,71.2,29.96,NW,315,0.0,0.0,97,0.00,,,0.00,,2013-07-19 07:56:00,
2013-07-19 04:02:00,72.1,71.2,29.96,NW,315,0.0,0.0,97,0.00,,,0.00,,2013-07-19 08:02:00,
2013-07-19 04:07:00,72.1,71.2,29.96,South,180,0.0,0.0,97,0.00,,,0.00,,2013-07-19 08:07:00,
2013-07-19 04:13:00,72.0,71.1,29.95,SE,135,0.0,0.0,97,0.00,,,0.00,,2013-07-19 08:13:00,
2013-07-19 04:19:00,72.0,71.1,29.96,SW,225,0.0,0.0,97,0.00,,,0.00,,2013-07-19 08:19:00,
2013-07-19 04:24:00,72.0,71.1,29.95,SW,225,0.0,0.0,97,0.00,,,0.00,,2013-07-19 08:24:00,
2013-07-19 04:30:00,72.0,71.1,29.95,West,270,0.0,0.0,97,0.00,,,0.00,,2013-07-19 08:30:00,
2013-07-19 04:36:00,72.0,71.1,29.95,West,270,0.0,0.0,97,0.00,,,0.00,,2013-07-19 08:36:00,
2013-07-19 04:41:00,72.0,71.1,29.95,West,270,0.0,0.0,97,0.00,,,0.00,,2013-07-19 08:41:00,
2013-07-19 04:47:00,71.8,70.9,29.95,SE,135,0.0,0.0,97,0.00,,,0.00,,2013-07-19 08:47:00,
2013-07-19 04:53:00,71.8,70.9,29.95,SE,135,0.0,0.0,97,0.00,,,0.00,,2013-07-19 08:53:00,
2013-07-19 04:58:00,71.8,70.9,29.94,SW,225,0.0,0.0,97,0.00,,,0.00,,2013-07-19 08:58:00,
2013-07-19 05:04:00,71.8,70.9,29.94,SW,225,0.0,0.0,97,0.00,,,0.00,,2013-07-19 09:04:00,
2013-07-19 05:10:00,71.8,70.9,29.94,SW,225,0.0,0.0,97,0.00,,,0.00,,2013-07-19 09:10:00,
2013-07-19 05:15:00,71.8,70.9,29.94,East,90,0.0,0.0,97,0.00,,,0.00,,2013-07-19 09:15:00,
2013-07-19 05:21:00,71.8,70.9,29.94,South,180,0.0,0.0,97,0.00,,,0.00,,2013-07-19 09:21:00,
2013-07-19 05:27:00,71.6,70.7,29.94,South,180,0.0,0.0,97,0.00,,,0.00,,2013-07-19 09:27:00,
2013-07-19 05:32:00,71.6,70.7,29.94,South,180,0.0,0.0,97,0.00,,,0.00,,2013-07-19 09:32:00,
2013-07-19 05:38:00,71.4,70.5,29.94,SW,225,0.0,0.0,97,0.00,,,0.00,,2013-07-19 09:38:00,
2013-07-19 05:44:00,71.2,70.3,29.94,SW,225,0.0,0.0,97,0.00,,,0.00,,2013-07-19 09:44:00,
2013-07-19 05:49:00,71.2,70.3,29.94,SW,225,0.0,0.0,97,0.00,,,0.00,,2013-07-19 09:49:00,
2013-07-19 05:55:00,71.2,70.3,29.94,SW,225,0.0,0.0,97,0.00,,,0.00,,2013-07-19 09:55:00,
2013-07-19 06:01:00,71.1,70.2,29.94,SW,225,0.0,0.0,97,0.00,,,0.00,,2013-07-19 10:01:00,
2013-07-19 06:06:00,71.1,70.2,29.94,SW,225,0.0,0.0,97,0.00,,,0.00,,2013-07-19 10:06:00,
2013-07-19 06:12:00,71.1,70.2,29.95,NW,315,0.0,0.0,97,0.00,,,0.00,,2013-07-19 10:12:00,
2013-07-19 06:18:00,71.2,70.3,29.94,NW,315,0.0,0.0,97,0.00,,,0.00,,2013-07-19 10:18:00,
2013-07-19 06:23:00,71.1,70.2,29.95,NW,315,0.0,0.0,97,0.00,,,0.00,,2013-07-19 10:23:00,
2013-07-19 06:29:00,71.1,70.2,29.95,SW,225,0.0,0.0,97,0.00,,,0.00,,2013-07-19 10:29:00,
2013-07-19 06:35:00,71.1,70.2,29.95,SW,225,0.0,0.0,97,0.00,,,0.00,,2013-07-19 10:35:00,
2013-07-19 06:40:00,71.2,70.3,29.94,NW,315,0.0,0.0,97,0.00,,,0.00,,2013-07-19 10:40:00,
2013-07-19 06:46:00,71.2,70.3,29.95,NW,315,0.0,0.0,97,0.00,,,0.00,,2013-07-19 10:46:00,
2013-07-19 06:52:00,71.2,70.3,29.94,NW,315,0.0,0.0,97,0.00,,,0.00,,2013-07-19 10:52:00,
2013-07-19 06:57:00,71.4,70.5,29.94,SE,135,0.0,0.0,97,0.00,,,0.00,,2013-07-19 10:57:00,
2013-07-19 07:03:00,71.6,70.7,29.95,South,180,0.0,0.0,97,0.00,,,0.00,,2013-07-19 11:03:00,
2013-07-19 07:09:00,71.6,70.7,29.94,South,180,0.0,0.0,97,0.00,,,0.00,,2013-07-19 11:09:00,
2013-07-19 07:14:00,72.0,71.1,29.95,SE,135,0.0,0.0,97,0.00,,,0.00,,2013-07-19 11:14:00,
2013-07-19 07:20:00,72.0,71.1,29.95,SW,225,0.0,0.0,97,0.00,,,0.00,,2013-07-19 11:20:00,
2013-07-19 07:26:00,72.1,71.2,29.94,South,180,0.0,0.0,97,0.00,,,0.00,,2013-07-19 11:26:00,
2013-07-19 07:31:00,72.3,71.4,29.94,South,180,0.0,0.0,97,0.00,,,0.00,,2013-07-19 11:31:00,
2013-07-19 07:37:00,72.5,72.2,29.95,SE,135,0.0,0.0,99,0.00,,,0.00,,2013-07-19 11:37:00,
2013-07-19 07:43:00,72.9,72.6,29.94,East,90,0.0,0.0,99,0.00,,,0.00,,2013-07-19 11:43:00,
2013-07-19 07:48:00,73.2,72.9,29.94,NW,315,0.0,0.0,99,0.00,,,0.00,,2013-07-19 11:48:00,
2013-07-19 07:54:00,73.6,73.3,29.94,NW,315,0.0,0.0,99,0.00,,,0.00,,2013-07-19 11:54:00,
2013-07-19 08:00:00,73.9,73.6,29.94,NW,315,0.0,0.0,99,0.00,,,0.00,,2013-07-19 12:00:00,
2013-07-19 08:05:00,74.5,74.2,29.94,SW,225,0.0,0.7,99,0.00,,,0.00,,2013-07-19 12:05:00,
2013-07-19 08:11:00,74.8,74.5,29.94,West,270,0.0,0.7,99,0.00,,,0.00,,2013-07-19 12:11:00,
2013-07-19 08:17:00,75.4,74.8,29.94,West,270,0.0,0.0,98,0.00,,,0.00,,2013-07-19 12:17:00,
2013-07-19 08:22:00,76.1,75.2,29.94,NW,315,0.0,0.0,97,0.00,,,0.00,,2013-07-19 12:22:00,
2013-07-19 08:28:00,78.1,76.8,29.93,East,90,0.0,0.7,96,0.00,,,0.00,,2013-07-19 12:28:00,
2013-07-19 08:34:00,79.5,77.6,29.93,West,270,0.7,1.6,94,0.00,,,0.00,,2013-07-19 12:34:00,
2013-07-19 08:40:00,79.7,76.5,29.93,SE,135,0.7,1.6,90,0.00,,,0.00,,2013-07-19 12:40:00,
2013-07-19 08:45:00,79.7,75.5,29.93,SW,225,0.0,1.6,87,0.00,,,0.00,,2013-07-19 12:45:00,
2013-07-19 08:51:00,80.1,75.1,29.93,South,180,0.7,2.2,85,0.00,,,0.00,,2013-07-19 12:51:00,
2013-07-19 08:57:00,80.4,75.1,29.92,SW,225,0.0,0.0,84,0.00,,,0.00,,2013-07-19 12:57:00,
2013-07-19 09:02:00,80.6,75.3,29.92,East,90,0.7,1.6,84,0.00,,,0.00,,2013-07-19 13:02:00,
2013-07-19 09:08:00,80.8,75.1,29.92,West,270,0.0,0.7,83,0.00,,,0.00,,2013-07-19 13:08:00,
2013-07-19 09:14:00,81.3,74.9,29.92,West,270,0.7,1.6,81,0.00,,,0.00,,2013-07-19 13:14:00,
2013-07-19 09:19:00,81.5,74.7,29.92,East,90,0.7,2.2,80,0.00,,,0.00,,2013-07-19 13:19:00,
2013-07-19 09:24:00,81.9,74.7,29.92,WNW,292,3.1,4.5,79,0.00,,,0.00,,2013-07-19 13:24:00,
2013-07-19 09:28:00,82.0,74.1,29.92,South,180,0.0,0.7,77,0.00,,,0.00,,2013-07-19 13:28:00,
2013-07-19 09:33:00,82.4,75.2,29.92,South,180,0.0,0.7,79,0.00,,,0.00,,2013-07-19 13:33:00,
2013-07-19 09:39:00,82.8,75.2,29.92,North,0,1.6,4.5,78,0.00,,,0.00,,2013-07-19 13:39:00,
2013-07-19 09:45:00,83.1,75.2,29.91,NE,45,0.0,0.7,77,0.00,,,0.00,,2013-07-19 13:45:00,
2013-07-19 09:50:00,83.5,74.7,29.91,South,180,2.2,5.4,75,0.00,,,0.00,,2013-07-19 13:50:00,
2013-07-19 09:56:00,83.7,74.5,29.91,SE,135,0.0,0.7,74,0.00,,,0.00,,2013-07-19 13:56:00,
2013-07-19 10:02:00,83.8,74.7,29.91,South,180,1.6,3.8,74,0.00,,,0.00,,2013-07-19 14:02:00,
2013-07-19 10:08:00,84.0,74.4,29.90,South,180,0.7,1.6,73,0.00,,,0.00,,2013-07-19 14:08:00,
2013-07-19 10:13:00,84.2,75.4,29.90,NNW,337,2.2,3.8,75,0.00,,,0.00,,2013-07-19 14:13:00,
2013-07-19 10:19:00,84.6,75.4,29.90,NE,45,0.7,2.2,74,0.00,,,0.00,,2013-07-19 14:19:00,
2013-07-19 10:25:00,84.6,74.9,29.90,NW,315,1.6,2.2,73,0.00,,,0.00,,2013-07-19 14:25:00,
2013-07-19 10:30:00,84.9,74.0,29.90,SE,135,0.7,1.6,70,0.00,,,0.00,,2013-07-19 14:30:00,
2013-07-19 10:36:00,85.1,74.6,29.90,NW,315,1.6,2.2,71,0.00,,,0.00,,2013-07-19 14:36:00,
2013-07-19 10:42:00,85.5,74.6,29.90,SE,135,0.7,2.2,70,0.00,,,0.00,,2013-07-19 14:42:00,
2013-07-19 10:47:00,85.8,74.5,29.90,NW,315,1.6,2.2,69,0.00,,,0.00,,2013-07-19 14:47:00,
2013-07-19 10:53:00,86.0,73.8,29.89,SW,225,1.6,3.1,67,0.00,,,0.00,,2013-07-19 14:53:00,
2013-07-19 10:59:00,86.2,73.9,29.89,North,0,0.0,0.7,67,0.00,,,0.00,,2013-07-19 14:59:00,
2013-07-19 11:04:00,86.5,74.3,29.89,SE,135,0.0,0.7,67,0.00,,,0.00,,2013-07-19 15:04:00,
2013-07-19 11:08:00,86.7,74.0,29.88,West,270,1.6,3.1,66,0.00,,,0.00,,2013-07-19 15:08:00,
2013-07-19 11:14:00,86.7,73.5,29.88,East,90,0.7,1.6,65,0.00,,,0.00,,2013-07-19 15:14:00,
2013-07-19 11:20:00,86.7,73.1,29.88,NW,315,1.6,3.1,64,0.00,,,0.00,,2013-07-19 15:20:00,
2013-07-19 11:25:00,87.1,73.0,29.88,South,180,0.0,1.6,63,0.00,,,0.00,,2013-07-19 15:25:00,
2013-07-19 11:31:00,87.8,73.6,29.88,SE,135,2.2,3.8,63,0.00,,,0.00,,2013-07-19 15:31:00,
2013-07-19 11:37:00,87.8,73.6,29.88,South,180,0.7,2.2,63,0.00,,,0.00,,2013-07-19 15:37:00,
2013-07-19 11:42:00,87.6,73.5,29.88,South,180,0.7,3.1,63,0.00,,,0.00,,2013-07-19 15:42:00,
2013-07-19 11:48:00,88.0,73.8,29.88,SE,135,1.6,3.8,63,0.00,,,0.00,,2013-07-19 15:48:00,
2013-07-19 11:54:00,88.0,73.8,29.88,North,0,1.6,3.1,63,0.00,,,0.00,,2013-07-19 15:54:00,
2013-07-19 11:59:00,88.0,74.3,29.88,West,270,0.7,2.2,64,0.00,,,0.00,,2013-07-19 15:59:00,
2013-07-19 12:05:00,88.0,74.3,29.88,East,90,0.7,2.2,64,0.00,,,0.00,,2013-07-19 16:05:00,
2013-07-19 12:11:00,88.2,74.0,29.88,NNW,337,0.0,1.6,63,0.00,,,0.00,,2013-07-19 16:11:00,
2013-07-19 12:16:00,88.2,74.0,29.88,NE,45,2.2,4.5,63,0.00,,,0.00,,2013-07-19 16:16:00,
2013-07-19 12:22:00,87.8,74.1,29.88,NW,315,0.7,2.2,64,0.00,,,0.00,,2013-07-19 16:22:00,
2013-07-19 12:28:00,87.8,73.2,29.88,WNW,292,1.6,2.2,62,0.00,,,0.00,,2013-07-19 16:28:00,
2013-07-19 12:34:00,87.4,72.8,29.87,ESE,112,1.6,3.8,62,0.00,,,0.00,,2013-07-19 16:34:00,
2013-07-19 12:39:00,87.6,73.5,29.87,SE,135,0.0,0.7,63,0.00,,,0.00,,2013-07-19 16:39:00,
2013-07-19 12:45:00,87.6,73.5,29.87,North,0,1.6,5.4,63,0.00,,,0.00,,2013-07-19 16:45:00,
2013-07-19 12:51:00,87.8,73.2,29.87,NW,315,1.6,3.8,62,0.00,,,0.00,,2013-07-19 16:51:00,
2013-07-19 12:56:00,88.3,74.1,29.86,SE,135,0.0,0.7,63,0.00,,,0.00,,2013-07-19 16:56:00,
2013-07-19 13:02:00,88.9,73.2,29.86,West,270,0.7,2.2,60,0.00,,,0.00,,2013-07-19 17:02:00,
2013-07-19 13:08:00,88.7,72.5,29.86,North,0,1.6,3.1,59,0.00,,,0.00,,2013-07-19 17:08:00,
2013-07-19 13:13:00,88.5,72.9,29.86,NE,45,0.7,2.2,60,0.00,,,0.00,,2013-07-19 17:13:00,
2013-07-19 13:19:00,89.1,73.9,29.86,NW,315,1.6,2.2,61,0.00,,,0.00,,2013-07-19 17:19:00,
2013-07-19 13:25:00,88.9,72.2,29.85,NW,315,1.6,2.2,58,0.00,,,0.00,,2013-07-19 17:25:00,
2013-07-19 13:30:00,89.1,72.4,29.85,East,90,0.7,3.1,58,0.00,,,0.00,,2013-07-19 17:30:00,
2013-07-19 13:36:00,88.7,73.0,29.85,North,0,0.0,1.6,60,0.00,,,0.00,,2013-07-19 17:36:00,
2013-07-19 13:42:00,89.1,73.4,29.85,SE,135,1.6,3.8,60,0.00,,,0.00,,2013-07-19 17:42:00,
2013-07-19 13:47:00,89.6,72.9,29.84,West,270,0.0,1.6,58,0.00,,,0.00,,2013-07-19 17:47:00,
2013-07-19 13:53:00,90.3,72.5,29.84,West,270,2.2,4.5,56,0.00,,,0.00,,2013-07-19 17:53:00,
2013-07-19 13:59:00,90.9,72.5,29.83,South,180,0.0,0.7,55,0.00,,,0.00,,2013-07-19 17:59:00,
2013-07-19 14:04:00,91.8,73.3,29.83,NW,315,1.6,3.1,55,0.00,,,0.00,,2013-07-19 18:04:00,
2013-07-19 14:10:00,92.3,72.7,29.83,NNW,337,3.1,4.5,53,0.00,,,0.00,,2013-07-19 18:10:00,
2013-07-19 14:15:00,93.2,74.1,29.83,South,180,0.7,3.1,54,0.00,,,0.00,,2013-07-19 18:15:00,
2013-07-19 14:21:00,93.9,72.5,29.82,SE,135,2.2,3.8,50,0.00,,,0.00,,2013-07-19 18:21:00,
2013-07-19 14:27:00,93.7,72.3,29.82,SE,135,2.2,3.1,50,0.00,,,0.00,,2013-07-19 18:27:00,
2013-07-19 14:32:00,94.8,73.3,29.82,South,180,2.2,3.1,50,0.00,,,0.00,,2013-07-19 18:32:00,
2013-07-19 14:38:00,95.5,72.1,29.81,WNW,292,0.0,1.6,47,0.00,,,0.00,,2013-07-19 18:38:00,
2013-07-19 14:43:00,95.4,71.3,29.81,East,90,1.6,3.8,46,0.00,,,0.00,,2013-07-19 18:43:00,
2013-07-19 14:49:00,94.6,71.3,29.81,SE,135,1.6,2.2,47,0.00,,,0.00,,2013-07-19 18:49:00,
2013-07-19 14:54:00,94.8,72.1,29.81,SE,135,0.7,2.2,48,0.00,,,0.00,,2013-07-19 18:54:00,
2013-07-19 15:00:00,96.1,71.3,29.81,SE,135,1.6,3.1,45,0.00,,,0.00,,2013-07-19 19:00:00,
2013-07-19 15:05:00,95.9,70.5,29.80,NW,315,0.7,1.6,44,0.00,,,0.00,,2013-07-19 19:05:00,
2013-07-19 15:11:00,95.9,71.1,29.80,East,90,1.6,3.1,45,0.00,,,0.00,,2013-07-19 19:11:00,
2013-07-19 15:16:00,96.6,70.5,29.79,NE,45,1.6,3.8,43,0.00,,,0.00,,2013-07-19 19:16:00,
2013-07-19 15:22:00,95.9,70.5,29.79,SE,135,0.0,0.7,44,0.00,,,0.00,,2013-07-19 19:22:00,
2013-07-19 15:27:00,95.9,70.5,29.79,NW,315,0.7,1.6,44,0.00,,,0.00,,2013-07-19 19:27:00,
2013-07-19 15:33:00,95.4,71.3,29.79,East,90,0.0,1.6,46,0.00,,,0.00,,2013-07-19 19:33:00,
2013-07-19 15:39:00,96.1,70.6,29.79,NE,45,1.6,3.1,44,0.00,,,0.00,,2013-07-19 19:39:00,
2013-07-19 15:44:00,96.4,71.6,29.79,SE,135,1.6,2.2,45,0.00,,,0.00,,2013-07-19 19:44:00,
2013-07-19 15:50:00,95.9,70.5,29.79,East,90,1.6,2.2,44,0.00,,,0.00,,2013-07-19 19:50:00,
2013-07-19 15:56:00,95.7,71.6,29.79,West,270,0.0,0.7,46,0.00,,,0.00,,2013-07-19 19:56:00,
2013-07-19 16:01:00,94.6,71.3,29.79,North,0,1.6,6.0,47,0.00,,,0.00,,2013-07-19 20:01:00,
2013-07-19 16:07:00,93.9,71.9,29.79,NW,315,3.1,5.4,49,0.00,,,0.00,,2013-07-19 20:07:00,
2013-07-19 16:13:00,93.2,71.2,29.79,SE,135,1.6,3.1,49,0.00,,,0.00,,2013-07-19 20:13:00,
2013-07-19 16:18:00,92.8,70.9,29.79,SE,135,0.0,1.6,49,0.00,,,0.00,,2013-07-19 20:18:00,
2013-07-19 16:24:00,93.2,71.8,29.78,East,90,0.7,2.2,50,0.00,,,0.00,,2013-07-19 20:24:00,
2013-07-19 16:30:00,93.4,71.4,29.77,South,180,2.2,4.5,49,0.00,,,0.00,,2013-07-19 20:30:00,
2013-07-19 16:35:00,92.7,71.3,29.78,SE,135,1.6,2.2,50,0.00,,,0.00,,2013-07-19 20:35:00,
2013-07-19 16:41:00,92.1,71.4,29.77,SE,135,2.2,3.8,51,0.00,,,0.00,,2013-07-19 20:41:00,
2013-07-19 16:47:00,91.6,72.0,29.77,NW,315,2.2,4.5,53,0.00,,,0.00,,2013-07-19 20:47:00,
2013-07-19 16:52:00,91.6,71.5,29.77,SE,135,1.6,2.2,52,0.00,,,0.00,,2013-07-19 20:52:00,
2013-07-19 16:58:00,91.0,71.0,29.77,East,90,0.7,1.6,52,0.00,,,0.00,,2013-07-19 20:58:00,
2013-07-19 17:04:00,91.6,72.6,29.77,East,90,1.6,3.1,54,0.00,,,0.00,,2013-07-19 21:04:00,
2013-07-19 17:09:00,91.6,72.6,29.77,West,270,1.6,2.2,54,0.00,,,0.00,,2013-07-19 21:09:00,
2013-07-19 17:15:00,91.8,73.3,29.76,ESE,112,0.7,2.2,55,0.00,,,0.00,,2013-07-19 21:15:00,
2013-07-19 17:21:00,91.6,73.1,29.77,NE,45,1.6,3.1,55,0.00,,,0.00,,2013-07-19 21:21:00,
2013-07-19 17:27:00,91.0,71.5,29.76,SE,135,0.7,1.6,53,0.00,,,0.00,,2013-07-19 21:27:00,
2013-07-19 17:33:00,91.0,71.5,29.76,SE,135,2.2,3.1,53,0.00,,,0.00,,2013-07-19 21:33:00,
2013-07-19 17:38:00,91.0,72.6,29.76,South,180,0.0,0.7,55,0.00,,,0.00,,2013-07-19 21:38:00,
2013-07-19 17:44:00,91.0,73.2,29.76,SW,225,0.7,3.1,56,0.00,,,0.00,,2013-07-19 21:44:00,
2013-07-19 17:50:00,91.0,73.2,29.76,SE,135,0.7,1.6,56,0.00,,,0.00,,2013-07-19 21:50:00,
2013-07-19 17:55:00,91.2,73.3,29.76,South,180,0.0,1.6,56,0.00,,,0.00,,2013-07-19 21:55:00,
2013-07-19 18:01:00,91.2,72.8,29.76,NW,315,3.8,6.9,55,0.00,,,0.00,,2013-07-19 22:01:00,
2013-07-19 18:07:00,91.0,72.6,29.76,East,90,0.7,1.6,55,0.00,,,0.00,,2013-07-19 22:07:00,
2013-07-19 18:12:00,91.2,72.8,29.77,East,90,0.0,1.6,55,0.00,,,0.00,,2013-07-19 22:12:00,
2013-07-19 18:18:00,91.2,72.8,29.77,SE,135,0.7,2.2,55,0.00,,,0.00,,2013-07-19 22:18:00,
2013-07-19 18:24:00,91.8,73.3,29.77,SE,135,0.7,1.6,55,0.00,,,0.00,,2013-07-19 22:24:00,
2013-07-19 18:29:00,92.3,73.2,29.77,South,180,1.6,2.2,54,0.00,,,0.00,,2013-07-19 22:29:00,
2013-07-19 18:35:00,91.8,72.7,29.77,ENE,67,1.6,3.1,54,0.00,,,0.00,,2013-07-19 22:35:00,
2013-07-19 18:41:00,91.2,72.8,29.78,East,90,1.6,3.8,55,0.00,,,0.00,,2013-07-19 22:41:00,
2013-07-19 18:46:00,91.0,71.5,29.78,East,90,3.1,4.5,53,0.00,,,0.00,,2013-07-19 22:46:00,
2013-07-19 18:52:00,90.1,70.7,29.79,SW,225,3.1,5.4,53,0.00,,,0.00,,2013-07-19 22:52:00,
2013-07-19 18:58:00,89.4,70.6,29.79,WNW,292,5.4,6.9,54,0.00,,,0.00,,2013-07-19 22:58:00,
2013-07-19 19:03:00,88.7,70.5,29.80,East,90,2.2,3.8,55,0.00,,,0.00,,2013-07-19 23:03:00,
2013-07-19 19:09:00,88.9,71.2,29.80,South,180,2.2,5.4,56,0.00,,,0.00,,2013-07-19 23:09:00,
2013-07-19 19:15:00,88.7,71.5,29.79,SW,225,0.7,1.6,57,0.00,,,0.00,,2013-07-19 23:15:00,
2013-07-19 19:20:00,88.2,72.0,29.79,South,180,1.6,3.1,59,0.00,,,0.00,,2013-07-19 23:20:00,
2013-07-19 19:26:00,87.8,72.2,29.80,South,180,1.6,3.1,60,0.00,,,0.00,,2013-07-19 23:26:00,
2013-07-19 19:32:00,87.6,72.5,29.80,West,270,0.7,3.1,61,0.00,,,0.00,,2013-07-19 23:32:00,
2013-07-19 19:37:00,87.3,72.6,29.79,NW,315,0.7,1.6,62,0.00,,,0.00,,2013-07-19 23:37:00,
2013-07-19 19:44:00,86.9,72.8,29.79,SE,135,1.6,2.2,63,0.00,,,0.00,,2013-07-19 23:44:00,
2013-07-19 19:50:00,85.6,72.5,29.80,NE,45,2.2,5.4,65,0.00,,,0.00,,2013-07-19 23:50:00,
2013-07-19 19:55:00,84.9,72.3,29.80,NW,315,3.1,7.6,66,0.00,,,0.00,,2013-07-19 23:55:00,
2013-07-19 20:01:00,84.0,71.4,29.80,ENE,67,1.6,3.8,66,0.00,,,0.00,,2013-07-20 00:01:00,
2013-07-19 20:07:00,83.3,70.8,29.80,South,180,2.2,3.8,66,0.00,,,0.00,,2013-07-20 00:07:00,
2013-07-19 20:12:00,82.8,70.2,29.80,East,90,1.6,2.2,66,0.00,,,0.00,,2013-07-20 00:12:00,
2013-07-19 20:18:00,82.4,70.3,29.79,SW,225,1.6,5.4,67,0.00,,,0.00,,2013-07-20 00:18:00,
2013-07-19 20:24:00,81.9,69.8,29.80,East,90,0.7,3.1,67,0.00,,,0.00,,2013-07-20 00:24:00,
2013-07-19 20:29:00,81.5,69.9,29.80,SW,225,0.0,0.7,68,0.00,,,0.00,,2013-07-20 00:29:00,
2013-07-19 20:35:00,81.1,70.4,29.79,South,180,0.7,2.2,70,0.00,,,0.00,,2013-07-20 00:35:00,
2013-07-19 20:41:00,80.8,70.5,29.79,SE,135,0.7,3.1,71,0.00,,,0.00,,2013-07-20 00:41:00,
2013-07-19 20:46:00,80.2,70.0,29.79,NW,315,0.7,2.2,71,0.00,,,0.00,,2013-07-20 00:46:00,
2013-07-19 20:52:00,79.9,70.0,29.79,South,180,0.0,0.7,72,0.00,,,0.00,,2013-07-20 00:52:00,
2013-07-19 20:58:00,79.7,69.9,29.78,NW,315,0.7,2.2,72,0.00,,,0.00,,2013-07-20 00:58:00,
2013-07-19 21:03:00,79.5,70.1,29.78,South,180,0.7,1.6,73,0.00,,,0.00,,2013-07-20 01:03:00,
2013-07-19 21:09:00,79.3,69.9,29.78,SE,135,0.0,0.0,73,0.00,,,0.00,,2013-07-20 01:09:00,
2013-07-19 21:15:00,79.0,70.0,29.78,South,180,0.7,1.6,74,0.00,,,0.00,,2013-07-20 01:15:00,
2013-07-19 21:20:00,78.8,69.8,29.78,SE,135,0.0,1.6,74,0.00,,,0.00,,2013-07-20 01:20:00,
2013-07-19 21:26:00,78.6,69.6,29.78,South,180,0.0,1.6,74,0.00,,,0.00,,2013-07-20 01:26:00,
2013-07-19 21:32:00,78.4,69.9,29.79,SE,135,0.0,0.7,75,0.00,,,0.00,,2013-07-20 01:32:00,
2013-07-19 21:37:00,78.3,69.7,29.79,SW,225,0.0,0.7,75,0.00,,,0.00,,2013-07-20 01:37:00,
2013-07-19 21:43:00,78.3,69.7,29.80,South,180,0.0,0.7,75,0.00,,,0.00,,2013-07-20 01:43:00,
2013-07-19 21:49:00,78.3,69.3,29.80,SE,135,2.2,5.4,74,0.00,,,0.00,,2013-07-20 01:49:00,
2013-07-19 21:54:00,78.3,69.3,29.80,SE,135,0.7,2.2,74,0.00,,,0.00,,2013-07-20 01:54:00,
2013-07-19 22:00:00,78.3,69.3,29.80,SE,135,0.0,0.7,74,0.00,,,0.00,,2013-07-20 02:00:00,
2013-07-19 22:06:00,78.1,69.1,29.80,South,180,1.6,2.2,74,0.00,,,0.00,,2013-07-20 02:06:00,
2013-07-19 22:11:00,77.9,68.9,29.80,SE,135,1.6,2.2,74,0.00,,,0.00,,2013-07-20 02:11:00,
2013-07-19 22:17:00,77.7,69.2,29.80,SW,225,0.7,2.2,75,0.00,,,0.00,,2013-07-20 02:17:00,
2013-07-19 22:23:00,77.7,69.2,29.81,SSE,157,0.7,2.2,75,0.00,,,0.00,,2013-07-20 02:23:00,
2013-07-19 22:28:00,77.5,69.0,29.80,South,180,0.7,1.6,75,0.00,,,0.00,,2013-07-20 02:28:00,
2013-07-19 22:34:00,77.4,68.8,29.80,SE,135,0.7,1.6,75,0.00,,,0.00,,2013-07-20 02:34:00,
2013-07-19 22:40:00,77.4,68.8,29.80,WNW,292,0.7,4.5,75,0.00,,,0.00,,2013-07-20 02:40:00,
2013-07-19 22:45:00,77.2,68.6,29.80,South,180,1.6,2.2,75,0.00,,,0.00,,2013-07-20 02:45:00,
2013-07-19 22:51:00,77.2,68.6,29.80,South,180,0.7,1.6,75,0.00,,,0.00,,2013-07-20 02:51:00,
2013-07-19 22:57:00,77.0,68.5,29.80,SW,225,0.0,0.7,75,0.00,,,0.00,,2013-07-20 02:57:00,
2013-07-19 23:02:00,77.0,68.5,29.81,SW,225,0.7,1.6,75,0.00,,,0.00,,2013-07-20 03:02:00,
2013-07-19 23:08:00,76.8,68.7,29.81,East,90,0.0,0.0,76,0.00,,,0.00,,2013-07-20 03:08:00,
2013-07-19 23:14:00,76.6,68.5,29.81,SE,135,0.0,0.7,76,0.00,,,0.00,,2013-07-20 03:14:00,
2013-07-19 23:19:00,76.5,68.3,29.82,SSW,202,0.0,0.7,76,0.00,,,0.00,,2013-07-20 03:19:00,
2013-07-19 23:25:00,76.3,68.2,29.83,SE,135,0.0,0.7,76,0.00,,,0.00,,2013-07-20 03:25:00,
2013-07-19 23:31:00,76.1,68.4,29.83,SE,135,0.7,2.2,77,0.00,,,0.00,,2013-07-20 03:31:00,
2013-07-19 23:36:00,76.1,68.4,29.84,South,180,0.0,0.7,77,0.00,,,0.00,,2013-07-20 03:36:00,
2013-07-19 23:42:00,75.7,68.8,29.84,South,180,0.0,1.6,79,0.00,,,0.00,,2013-07-20 03:42:00,
2013-07-19 23:48:00,75.6,68.6,29.84,SW,225,0.0,0.7,79,0.00,,,0.00,,2013-07-20 03:48:00,
2013-07-19 23:53:00,75.4,68.8,29.84,West,270,0.7,2.2,80,0.00,,,0.00,,2013-07-20 03:53:00,
2013-07-19 23:59:00,75.4,68.8,29.86,West,270,1.6,2.2,80,0.00,,,0.00,,2013-07-20 03:59:00,